createdAt,value
2018-02-05T00:00:33.089Z,83.70
2018-02-05T00:03:00.632Z,83.60
2018-02-05T00:05:28.151Z,83.90
2018-02-05T00:07:55.689Z,84.10
2018-02-05T00:10:23.212Z,84.40
2018-02-05T00:12:51.521Z,84.60
2018-02-05T00:15:19.060Z,84.40
2018-02-05T00:17:46.625Z,84.40
2018-02-05T00:20:14.191Z,84.00
2018-02-05T00:22:41.728Z,83.90
2018-02-05T00:25:10.353Z,84.00
2018-02-05T00:27:41.186Z,84.40
2018-02-05T00:30:11.675Z,84.30
2018-02-05T00:32:39.319Z,84.40
2018-02-05T00:35:07.604Z,84.50
2018-02-05T00:37:35.266Z,84.40
2018-02-05T00:40:02.796Z,84.30
2018-02-05T00:42:30.312Z,83.70
2018-02-05T00:44:58.615Z,83.60
2018-02-05T00:47:26.146Z,83.50
2018-02-05T00:49:53.685Z,83.50
2018-02-05T00:52:21.205Z,83.20
2018-02-05T00:54:49.507Z,83.10
2018-02-05T00:57:17.051Z,83.10
2018-02-05T00:59:44.587Z,83.20
2018-02-05T01:02:12.112Z,83.10
2018-02-05T01:04:39.668Z,82.90
2018-02-05T01:07:07.238Z,83.20
2018-02-05T01:09:34.783Z,83.00
2018-02-05T01:12:02.296Z,83.10
2018-02-05T01:14:30.768Z,82.90
2018-02-05T01:16:58.300Z,83.10
2018-02-05T01:19:25.840Z,83.30
2018-02-05T01:21:53.357Z,83.50
2018-02-05T01:24:20.890Z,83.40
2018-02-05T01:26:48.430Z,84.00
2018-02-05T01:29:16.051Z,83.80
2018-02-05T01:31:43.594Z,83.50
2018-02-05T01:34:11.211Z,83.40
2018-02-05T01:36:38.768Z,83.00
2018-02-05T01:39:06.290Z,82.90
2018-02-05T01:41:34.588Z,81.70
2018-02-05T01:44:02.121Z,81.70
2018-02-05T01:46:29.659Z,82.00
2018-02-05T01:48:57.176Z,81.90
2018-02-05T01:51:25.502Z,81.50
2018-02-05T01:53:53.137Z,81.50
2018-02-05T01:56:20.703Z,81.40
2018-02-05T01:58:48.220Z,81.60
2018-02-05T02:01:15.751Z,82.10
2018-02-05T02:03:43.267Z,81.90
2018-02-05T02:06:11.568Z,82.30
2018-02-05T02:08:39.089Z,82.30
2018-02-05T02:11:08.572Z,82.20
2018-02-05T02:13:36.087Z,82.20
2018-02-05T02:16:03.639Z,82.00
2018-02-05T02:18:31.149Z,82.30
2018-02-05T02:20:58.692Z,82.20
2018-02-05T02:23:26.240Z,82.20
2018-02-05T02:25:53.755Z,81.90
2018-02-05T02:28:21.283Z,81.80
2018-02-05T02:30:48.804Z,81.60
2018-02-05T02:33:17.167Z,81.50
2018-02-05T02:35:44.763Z,81.40
2018-02-05T02:38:12.316Z,81.60
2018-02-05T02:40:39.842Z,81.50
2018-02-05T02:43:07.396Z,81.50
2018-02-05T02:45:34.949Z,80.90
2018-02-05T02:48:02.599Z,80.70
2018-02-05T02:50:30.976Z,80.90
2018-02-05T02:53:00.102Z,81.00
2018-02-05T02:55:27.694Z,81.00
2018-02-05T02:57:55.302Z,81.00
2018-02-05T03:00:22.872Z,80.80
2018-02-05T03:02:50.529Z,80.50
2018-02-05T03:05:18.096Z,80.00
2018-02-05T03:07:45.608Z,80.30
2018-02-05T03:10:13.137Z,80.80
2018-02-05T03:12:40.851Z,80.10
2018-02-05T03:15:09.260Z,80.30
2018-02-05T03:17:36.773Z,80.20
2018-02-05T03:20:04.303Z,80.50
2018-02-05T03:22:33.559Z,80.40
2018-02-05T03:25:01.103Z,80.40
2018-02-05T03:27:28.726Z,80.30
2018-02-05T03:29:56.256Z,79.80
2018-02-05T03:32:23.824Z,80.00
2018-02-05T03:34:51.460Z,80.40
2018-02-05T03:37:18.984Z,80.50
2018-02-05T03:39:46.544Z,80.80
2018-02-05T03:42:14.091Z,81.00
2018-02-05T03:44:41.611Z,80.90
2018-02-05T03:47:09.268Z,80.70
2018-02-05T03:49:36.815Z,80.60
2018-02-05T03:52:04.350Z,80.40
2018-02-05T03:54:31.872Z,80.10
2018-02-05T03:57:00.976Z,79.90
2018-02-05T03:59:28.500Z,79.80
2018-02-05T04:01:56.031Z,79.90
2018-02-05T04:04:24.311Z,80.90
2018-02-05T04:06:58.217Z,81.30
2018-02-05T04:09:25.737Z,81.30
2018-02-05T04:11:54.043Z,80.80
2018-02-05T04:14:21.563Z,80.70
2018-02-05T04:16:49.092Z,80.80
2018-02-05T04:19:17.376Z,80.00
2018-02-05T04:21:44.916Z,80.00
2018-02-05T04:24:12.467Z,80.30
2018-02-05T04:26:40.335Z,79.60
2018-02-05T04:29:07.855Z,79.70
2018-02-05T04:31:35.440Z,79.90
2018-02-05T04:34:04.587Z,80.00
2018-02-05T04:36:32.146Z,79.90
2018-02-05T04:38:59.695Z,80.20
2018-02-05T04:41:27.572Z,80.10
2018-02-05T04:43:55.312Z,80.10
2018-02-05T04:46:23.625Z,80.10
2018-02-05T04:48:51.154Z,80.10
2018-02-05T04:51:19.434Z,79.80
2018-02-05T04:53:46.967Z,79.70
2018-02-05T04:56:15.252Z,80.30
2018-02-05T04:58:43.556Z,80.60
2018-02-05T05:01:11.069Z,80.60
2018-02-05T05:03:38.603Z,81.00
2018-02-05T05:06:06.111Z,81.30
2018-02-05T05:08:34.405Z,81.50
2018-02-05T05:11:01.943Z,81.40
2018-02-05T05:13:29.479Z,81.50
2018-02-05T05:15:57.005Z,81.30
2018-02-05T05:18:25.282Z,81.30
2018-02-05T05:20:53.589Z,81.10
2018-02-05T05:23:21.099Z,81.10
2018-02-05T05:25:48.636Z,81.00
2018-02-05T05:28:16.152Z,81.00
2018-02-05T05:30:43.684Z,81.20
2018-02-05T05:33:11.197Z,82.10
2018-02-05T05:35:38.801Z,81.40
2018-02-05T05:38:07.247Z,81.60
2018-02-05T05:40:35.691Z,81.50
2018-02-05T05:43:03.249Z,81.40
2018-02-05T05:45:30.775Z,81.30
2018-02-05T05:47:58.296Z,81.60
2018-02-05T05:50:25.827Z,81.70
2018-02-05T05:52:53.343Z,81.60
2018-02-05T05:55:21.941Z,81.30
2018-02-05T05:57:50.548Z,81.30
2018-02-05T06:00:18.074Z,81.50
2018-02-05T06:02:45.614Z,81.50
2018-02-05T06:05:13.136Z,81.10
2018-02-05T06:07:40.675Z,81.20
2018-02-05T06:10:08.203Z,81.20
2018-02-05T06:12:35.775Z,81.00
2018-02-05T06:15:03.292Z,80.60
2018-02-05T06:17:31.600Z,80.60
2018-02-05T06:19:59.198Z,80.60
2018-02-05T06:22:27.499Z,80.80
2018-02-05T06:24:55.015Z,80.60
2018-02-05T06:27:23.365Z,80.60
2018-02-05T06:29:51.755Z,80.80
2018-02-05T06:32:19.317Z,80.70
2018-02-05T06:34:46.870Z,81.20
2018-02-05T06:37:14.395Z,81.10
2018-02-05T06:39:41.960Z,81.30
2018-02-05T06:42:09.531Z,81.40
2018-02-05T06:44:38.867Z,81.40
2018-02-05T06:47:06.452Z,81.40
2018-02-05T06:49:35.546Z,81.20
2018-02-05T06:52:14.936Z,81.20
2018-02-05T06:54:54.470Z,81.30
2018-02-05T06:57:25.904Z,81.50
2018-02-05T06:59:53.524Z,81.40
2018-02-05T07:02:21.032Z,81.50
2018-02-05T07:04:49.331Z,81.80
2018-02-05T07:07:17.053Z,81.20
2018-02-05T07:09:45.368Z,80.20
2018-02-05T07:12:12.990Z,80.20
2018-02-05T07:14:40.523Z,80.00
2018-02-05T07:17:08.035Z,80.00
2018-02-05T07:19:35.571Z,79.90
2018-02-05T07:22:03.080Z,79.30
2018-02-05T07:24:30.611Z,78.90
2018-02-05T07:26:58.133Z,78.80
2018-02-05T07:29:26.557Z,77.70
2018-02-05T07:31:54.128Z,77.70
2018-02-05T07:34:22.438Z,77.10
2018-02-05T07:36:49.972Z,76.40
2018-02-05T07:39:17.616Z,77.00
2018-02-05T07:41:45.147Z,76.90
2018-02-05T07:44:12.659Z,76.10
2018-02-05T07:46:40.427Z,75.80
2018-02-05T07:49:08.712Z,75.40
2018-02-05T07:51:36.244Z,75.30
2018-02-05T07:54:03.747Z,74.90
2018-02-05T07:56:31.280Z,74.80
2018-02-05T07:58:58.805Z,74.90
2018-02-05T08:01:26.355Z,74.30
2018-02-05T08:03:53.875Z,73.90
2018-02-05T08:06:21.404Z,73.90
2018-02-05T08:08:48.928Z,73.40
2018-02-05T08:11:17.226Z,72.30
2018-02-05T08:13:44.868Z,72.30
2018-02-05T08:16:12.397Z,72.40
2018-02-05T08:18:40.681Z,72.90
2018-02-05T08:21:08.229Z,72.90
2018-02-05T08:23:35.744Z,72.30
2018-02-05T08:26:04.068Z,71.80
2018-02-05T08:28:32.392Z,72.40
2018-02-05T08:31:01.264Z,72.30
2018-02-05T08:33:28.832Z,72.80
2018-02-05T08:35:56.356Z,72.40
2018-02-05T08:38:23.891Z,72.90
2018-02-05T08:40:51.411Z,71.90
2018-02-05T08:43:19.722Z,71.50
2018-02-05T08:45:47.231Z,71.40
2018-02-05T08:48:14.807Z,72.00
2018-02-05T08:50:42.315Z,71.10
2018-02-05T08:53:10.619Z,71.40
2018-02-05T08:55:38.148Z,71.30
2018-02-05T08:58:05.678Z,71.00
2018-02-05T09:00:33.195Z,71.30
2018-02-05T09:03:00.735Z,71.60
2018-02-05T09:05:28.545Z,71.50
2018-02-05T09:07:56.108Z,69.80
2018-02-05T09:10:23.631Z,70.40
2018-02-05T09:12:51.146Z,69.80
2018-02-05T09:15:18.695Z,68.90
2018-02-05T09:17:46.212Z,68.10
2018-02-05T09:20:14.502Z,68.10
2018-02-05T09:22:42.031Z,68.10
2018-02-05T09:25:10.505Z,68.20
2018-02-05T09:27:38.046Z,68.20
2018-02-05T09:30:06.401Z,65.60
2018-02-05T09:32:33.915Z,65.50
2018-02-05T09:35:01.448Z,65.90
2018-02-05T09:37:28.987Z,66.20
2018-02-05T09:39:56.548Z,64.90
2018-02-05T09:42:24.847Z,60.90
2018-02-05T09:44:53.165Z,60.40
2018-02-05T09:47:20.691Z,60.40
2018-02-05T09:49:48.225Z,60.80
2018-02-05T09:52:15.772Z,61.50
2018-02-05T09:54:43.292Z,59.70
2018-02-05T09:57:10.806Z,59.70
2018-02-05T09:59:39.081Z,58.70
2018-02-05T10:02:07.380Z,58.00
2018-02-05T10:04:34.888Z,57.90
2018-02-05T10:07:03.186Z,58.00
2018-02-05T10:09:30.724Z,58.00
2018-02-05T10:11:58.251Z,57.90
2018-02-05T10:14:25.762Z,57.80
2018-02-05T10:16:53.285Z,57.50
2018-02-05T10:19:20.800Z,57.50
2018-02-05T10:21:54.307Z,57.90
2018-02-05T10:24:21.816Z,56.70
2018-02-05T10:26:49.368Z,54.80
2018-02-05T10:29:16.927Z,52.90
2018-02-05T10:31:44.455Z,52.70
2018-02-05T10:34:12.028Z,52.20
2018-02-05T10:36:39.685Z,52.70
2018-02-05T10:39:07.198Z,53.10
2018-02-05T10:41:34.728Z,53.90
2018-02-05T10:44:02.239Z,54.20
2018-02-05T10:46:30.566Z,54.80
2018-02-05T10:48:58.299Z,54.70
2018-02-05T10:51:25.814Z,54.40
2018-02-05T10:53:54.095Z,53.90
2018-02-05T10:56:21.998Z,53.90
2018-02-05T10:58:49.540Z,53.30
2018-02-05T11:01:17.051Z,53.00
2018-02-05T11:03:44.583Z,52.80
2018-02-05T11:06:12.121Z,53.40
2018-02-05T11:08:39.649Z,54.10
2018-02-05T11:11:07.919Z,54.00
2018-02-05T11:13:35.502Z,54.00
2018-02-05T11:16:03.036Z,53.50
2018-02-05T11:18:30.557Z,53.40
2018-02-05T11:20:58.108Z,52.10
2018-02-05T11:23:25.642Z,52.60
2018-02-05T11:25:53.156Z,52.30
2018-02-05T11:28:21.469Z,52.50
2018-02-05T11:30:49.016Z,52.50
2018-02-05T11:33:16.523Z,52.80
2018-02-05T11:35:45.754Z,52.30
2018-02-05T11:38:13.264Z,52.30
2018-02-05T11:40:40.828Z,52.10
2018-02-05T11:43:08.339Z,52.10
2018-02-05T11:45:36.843Z,51.00
2018-02-05T11:48:04.362Z,51.00
2018-02-05T11:50:31.879Z,51.10
2018-02-05T11:53:00.208Z,51.70
2018-02-05T11:55:27.780Z,51.70
2018-02-05T11:57:56.063Z,51.00
2018-02-05T12:00:23.596Z,51.00
2018-02-05T12:02:51.871Z,49.60
2018-02-05T12:05:19.449Z,49.60
2018-02-05T12:07:46.965Z,49.70
2018-02-05T12:10:14.494Z,49.20
2018-02-05T12:12:42.771Z,48.90
2018-02-05T12:15:10.618Z,48.90
2018-02-05T12:17:38.140Z,49.90
2018-02-05T12:20:06.412Z,49.20
2018-02-05T12:22:34.699Z,48.20
2018-02-05T12:25:02.240Z,48.20
2018-02-05T12:27:29.992Z,47.70
2018-02-05T12:29:57.546Z,47.80
2018-02-05T12:32:25.086Z,47.70
2018-02-05T12:34:52.603Z,47.50
2018-02-05T12:37:21.017Z,46.70
2018-02-05T12:39:48.585Z,46.70
2018-02-05T12:42:16.544Z,46.70
2018-02-05T12:44:44.904Z,45.10
2018-02-05T12:47:14.357Z,45.20
2018-02-05T12:49:42.725Z,45.20
2018-02-05T12:52:10.496Z,45.60
2018-02-05T12:54:38.395Z,46.50
2018-02-05T12:57:06.075Z,46.40
2018-02-05T12:59:33.723Z,45.50
2018-02-05T13:02:08.840Z,45.60
2018-02-05T13:04:51.586Z,45.40
2018-02-05T13:07:20.216Z,44.20
2018-02-05T13:09:47.760Z,44.20
2018-02-05T13:12:15.312Z,44.50
2018-02-05T13:14:42.873Z,45.20
2018-02-05T13:17:10.524Z,44.40
2018-02-05T13:19:38.885Z,44.40
2018-02-05T13:22:06.402Z,44.40
2018-02-05T13:24:34.105Z,44.60
2018-02-05T13:27:02.577Z,45.00
2018-02-05T13:29:30.103Z,45.30
2018-02-05T13:31:58.371Z,45.40
2018-02-05T13:34:26.664Z,44.50
2018-02-05T13:36:54.183Z,44.40
2018-02-05T13:39:22.476Z,44.00
2018-02-05T13:41:49.989Z,44.00
2018-02-05T13:44:17.523Z,44.50
2018-02-05T13:46:45.804Z,45.90
2018-02-05T13:49:13.359Z,45.90
2018-02-05T13:51:40.865Z,45.70
2018-02-05T13:54:08.380Z,45.40
2018-02-05T13:56:35.909Z,44.80
2018-02-05T13:59:03.423Z,45.80
2018-02-05T14:01:30.965Z,45.60
2018-02-05T14:03:58.487Z,45.40
2018-02-05T14:06:26.784Z,46.20
2018-02-05T14:08:54.312Z,46.20
2018-02-05T14:11:22.094Z,46.20
2018-02-05T14:13:49.825Z,46.50
2018-02-05T14:16:17.365Z,45.80
2018-02-05T14:18:44.887Z,46.10
2018-02-05T14:21:13.195Z,46.30
2018-02-05T14:23:41.495Z,46.50
2018-02-05T14:26:09.814Z,46.40
2018-02-05T14:28:37.333Z,46.40
2018-02-05T14:31:04.861Z,46.70
2018-02-05T14:33:32.400Z,46.40
2018-02-05T14:36:00.685Z,47.10
2018-02-05T14:38:28.231Z,47.10
2018-02-05T14:40:55.743Z,47.30
2018-02-05T14:43:23.348Z,46.40
2018-02-05T14:45:50.880Z,46.70
2018-02-05T14:48:18.415Z,45.60
2018-02-05T14:50:45.929Z,44.50
2018-02-05T14:53:14.219Z,42.90
2018-02-05T14:55:41.735Z,42.80
2018-02-05T14:58:10.117Z,42.90
2018-02-05T15:00:37.623Z,42.90
2018-02-05T15:03:05.143Z,43.50
2018-02-05T15:05:32.657Z,43.70
2018-02-05T15:08:00.189Z,42.60
2018-02-05T15:10:27.731Z,42.30
2018-02-05T15:12:55.264Z,41.70
2018-02-05T15:15:23.550Z,42.30
2018-02-05T15:17:51.240Z,42.30
2018-02-05T15:20:18.747Z,42.50
2018-02-05T15:22:46.288Z,42.80
2018-02-05T15:25:13.834Z,43.40
2018-02-05T15:27:41.385Z,43.90
2018-02-05T15:30:08.932Z,43.80
2018-02-05T15:32:36.480Z,44.10
2018-02-05T15:35:04.000Z,44.60
2018-02-05T15:37:31.648Z,44.60
2018-02-05T15:39:59.179Z,44.80
2018-02-05T15:42:27.464Z,45.30
2018-02-05T15:44:55.000Z,45.30
2018-02-05T15:47:22.515Z,45.50
2018-02-05T15:49:50.117Z,46.00
2018-02-05T15:52:17.887Z,46.00
2018-02-05T15:54:45.419Z,46.30
2018-02-05T15:57:12.931Z,46.70
2018-02-05T15:59:40.463Z,47.00
2018-02-05T16:02:07.995Z,46.80
2018-02-05T16:04:36.274Z,46.40
2018-02-05T16:07:03.818Z,46.40
2018-02-05T16:09:31.367Z,45.90
2018-02-05T16:11:58.913Z,46.70
2018-02-05T16:14:26.465Z,46.60
2018-02-05T16:16:54.049Z,46.60
2018-02-05T16:19:21.567Z,46.40
2018-02-05T16:21:49.102Z,46.80
2018-02-05T16:24:16.658Z,47.00
2018-02-05T16:26:44.253Z,46.90
2018-02-05T16:29:12.541Z,47.40
2018-02-05T16:31:40.137Z,47.40
2018-02-05T16:34:08.440Z,48.30
2018-02-05T16:36:36.013Z,48.40
2018-02-05T16:39:03.530Z,48.90
2018-02-05T16:41:31.091Z,48.70
2018-02-05T16:43:58.595Z,48.40
2018-02-05T16:46:26.876Z,48.90
2018-02-05T16:48:54.454Z,48.90
2018-02-05T16:51:21.967Z,49.10
2018-02-05T16:53:49.496Z,49.20
2018-02-05T16:56:17.783Z,49.10
2018-02-05T16:58:45.312Z,49.10
2018-02-05T17:01:12.827Z,49.40
2018-02-05T17:03:40.435Z,49.90
2018-02-05T17:06:07.961Z,50.30
2018-02-05T17:08:35.691Z,50.80
2018-02-05T17:11:03.232Z,51.10
2018-02-05T17:13:31.696Z,51.80
2018-02-05T17:15:59.269Z,51.80
2018-02-05T17:18:27.031Z,52.30
2018-02-05T17:20:55.040Z,52.80
2018-02-05T17:23:23.424Z,53.70
2018-02-05T17:25:51.026Z,53.70
2018-02-05T17:28:19.477Z,54.50
2018-02-05T17:30:47.103Z,54.40
2018-02-05T17:33:14.644Z,54.80
2018-02-05T17:35:42.378Z,55.40
2018-02-05T17:38:09.963Z,55.50
2018-02-05T17:40:37.611Z,55.50
2018-02-05T17:43:05.229Z,55.90
2018-02-05T17:45:32.809Z,56.20
2018-02-05T17:48:00.440Z,56.60
2018-02-05T17:50:27.994Z,56.70
2018-02-05T17:52:55.782Z,56.70
2018-02-05T17:55:23.337Z,56.80
2018-02-05T17:57:50.852Z,57.00
2018-02-05T18:00:18.386Z,57.10
2018-02-05T18:02:45.916Z,57.10
2018-02-05T18:05:13.511Z,57.10
2018-02-05T18:07:41.789Z,57.20
2018-02-05T18:10:09.328Z,57.20
2018-02-05T18:12:36.845Z,57.30
2018-02-05T18:15:05.172Z,57.90
2018-02-05T18:17:32.705Z,57.70
2018-02-05T18:20:00.219Z,58.10
2018-02-05T18:22:27.768Z,58.20
2018-02-05T18:24:55.288Z,58.70
2018-02-05T18:27:22.847Z,58.90
2018-02-05T18:29:50.371Z,59.80
2018-02-05T18:32:18.671Z,60.40
2018-02-05T18:34:46.184Z,60.40
2018-02-05T18:37:13.707Z,60.60
2018-02-05T18:39:41.244Z,60.60
2018-02-05T18:42:08.815Z,60.70
2018-02-05T18:44:37.916Z,61.00
2018-02-05T18:47:05.448Z,61.00
2018-02-05T18:49:33.727Z,61.40
2018-02-05T18:52:01.294Z,61.40
2018-02-05T18:54:28.837Z,61.50
2018-02-05T18:56:58.285Z,61.80
2018-02-05T18:59:26.584Z,62.00
2018-02-05T19:02:06.127Z,61.90
2018-02-05T19:04:33.670Z,62.50
2018-02-05T19:07:01.192Z,62.40
2018-02-05T19:09:28.887Z,62.50
2018-02-05T19:11:56.507Z,62.70
2018-02-05T19:14:24.043Z,62.90
2018-02-05T19:16:51.560Z,62.80
2018-02-05T19:19:19.116Z,62.90
2018-02-05T19:21:46.751Z,63.00
2018-02-05T19:24:14.336Z,62.90
2018-02-05T19:26:41.871Z,63.00
2018-02-05T19:29:09.412Z,63.20
2018-02-05T19:31:36.923Z,63.30
2018-02-05T19:34:04.552Z,63.60
2018-02-05T19:36:32.083Z,63.80
2018-02-05T19:38:59.791Z,63.80
2018-02-05T19:41:27.339Z,64.80
2018-02-05T19:43:54.851Z,64.40
2018-02-05T19:46:22.937Z,64.40
2018-02-05T19:48:50.465Z,64.30
2018-02-05T19:51:18.008Z,64.60
2018-02-05T19:53:45.555Z,64.00
2018-02-05T19:56:13.108Z,64.00
2018-02-05T19:58:40.915Z,64.20
2018-02-05T20:01:09.546Z,64.70
2018-02-05T20:03:37.068Z,64.70
2018-02-05T20:06:04.596Z,64.30
2018-02-05T20:08:33.358Z,64.40
2018-02-05T20:11:00.937Z,64.80
2018-02-05T20:13:28.456Z,64.70
2018-02-05T20:15:56.008Z,64.50
2018-02-05T20:18:23.523Z,64.70
2018-02-05T20:20:51.841Z,65.50
2018-02-05T20:23:19.428Z,65.40
2018-02-05T20:25:47.716Z,65.80
2018-02-05T20:28:15.307Z,65.70
2018-02-05T20:30:42.943Z,65.70
2018-02-05T20:33:10.557Z,65.50
2018-02-05T20:35:38.091Z,65.10
2018-02-05T20:38:05.643Z,64.70
2018-02-05T20:40:33.159Z,64.70
2018-02-05T20:43:01.472Z,64.10
2018-02-05T20:45:29.012Z,63.90
2018-02-05T20:47:56.668Z,63.60
2018-02-05T20:50:24.197Z,63.30
2018-02-05T20:52:52.027Z,63.10
2018-02-05T20:55:19.579Z,62.90
2018-02-05T20:57:47.103Z,62.10
2018-02-05T21:00:15.432Z,62.00
2018-02-05T21:02:43.760Z,61.40
2018-02-05T21:05:11.280Z,61.40
2018-02-05T21:07:38.872Z,61.50
2018-02-05T21:10:06.383Z,61.30
2018-02-05T21:12:33.950Z,61.70
2018-02-05T21:15:01.479Z,61.60
2018-02-05T21:17:29.025Z,61.10
2018-02-05T21:19:56.563Z,61.50
2018-02-05T21:22:24.180Z,60.70
2018-02-05T21:24:52.480Z,60.90
2018-02-05T21:27:20.011Z,60.90
2018-02-05T21:29:47.569Z,60.60
2018-02-05T21:32:15.099Z,59.90
2018-02-05T21:34:42.667Z,59.90
2018-02-05T21:37:10.185Z,60.20
2018-02-05T21:39:37.712Z,60.00
2018-02-05T21:42:06.074Z,59.30
2018-02-05T21:44:33.677Z,59.30
2018-02-05T21:47:01.197Z,59.50
2018-02-05T21:49:28.723Z,59.60
2018-02-05T21:51:56.244Z,59.90
2018-02-05T21:54:24.544Z,59.70
2018-02-05T21:56:52.064Z,59.70
2018-02-05T21:59:19.595Z,59.00
2018-02-05T22:01:47.128Z,59.00
2018-02-05T22:04:14.651Z,59.00
2018-02-05T22:06:42.276Z,59.10
2018-02-05T22:09:11.399Z,58.90
2018-02-05T22:11:38.977Z,59.70
2018-02-05T22:14:06.549Z,60.20
2018-02-05T22:16:34.095Z,60.30
2018-02-05T22:19:01.652Z,61.10
2018-02-05T22:21:29.196Z,61.40
2018-02-05T22:23:56.726Z,61.80
2018-02-05T22:26:24.260Z,61.90
2018-02-05T22:28:51.864Z,61.20
2018-02-05T22:31:19.364Z,61.90
2018-02-05T22:33:46.903Z,62.30
2018-02-05T22:36:14.434Z,61.60
2018-02-05T22:38:41.966Z,61.50
2018-02-05T22:41:10.133Z,61.50
2018-02-05T22:43:37.703Z,61.80
2018-02-05T22:46:05.239Z,62.00
2018-02-05T22:48:32.756Z,61.70
2018-02-05T22:51:00.352Z,61.60
2018-02-05T22:53:27.876Z,61.70
2018-02-05T22:55:55.467Z,62.10
2018-02-05T22:58:23.748Z,62.10
2018-02-05T23:00:51.283Z,62.10
2018-02-05T23:03:19.565Z,62.90
2018-02-05T23:05:48.005Z,62.70
2018-02-05T23:08:16.304Z,63.50
2018-02-05T23:10:43.832Z,63.50
2018-02-05T23:13:11.362Z,63.80
2018-02-05T23:15:39.672Z,64.30
2018-02-05T23:18:07.216Z,64.30
2018-02-05T23:20:34.770Z,64.70
2018-02-05T23:23:02.397Z,64.40
2018-02-05T23:25:30.248Z,64.30
2018-02-05T23:27:57.782Z,64.70
2018-02-05T23:30:25.339Z,64.50
2018-02-05T23:32:52.877Z,65.00
2018-02-05T23:35:20.391Z,65.30
2018-02-05T23:37:47.930Z,65.30
2018-02-05T23:40:16.366Z,65.80
2018-02-05T23:42:43.927Z,65.80
2018-02-05T23:45:12.220Z,66.50
2018-02-05T23:47:39.816Z,66.50
2018-02-05T23:50:07.331Z,66.60
2018-02-05T23:52:34.867Z,66.90
2018-02-05T23:55:03.207Z,67.60
2018-02-05T23:57:30.800Z,67.60
2018-02-05T23:59:58.326Z,67.60
